createdAt,value
2023-04-09T00:00:43.773Z,25.53
2023-04-09T00:03:10.853Z,24.50
2023-04-09T00:05:41.064Z,24.53
2023-04-09T00:08:08.320Z,25.23
2023-04-09T00:10:35.230Z,25.50
2023-04-09T00:13:02.007Z,24.20
2023-04-09T00:15:31.571Z,24.13
2023-04-09T00:17:59.238Z,23.40
2023-04-09T00:20:26.158Z,23.23
2023-04-09T00:22:52.911Z,23.37
2023-04-09T00:25:20.362Z,23.97
2023-04-09T00:27:47.604Z,23.83
2023-04-09T00:30:14.428Z,24.50
2023-04-09T00:32:41.279Z,24.10
2023-04-09T00:35:08.942Z,25.87
2023-04-09T00:37:35.791Z,24.60
2023-04-09T00:40:02.699Z,27.03
2023-04-09T00:42:37.386Z,28.70
2023-04-09T00:45:06.155Z,26.53
2023-04-09T00:47:34.304Z,25.60
2023-04-09T00:50:01.791Z,25.97
2023-04-09T00:52:30.648Z,24.10
2023-04-09T00:55:00.593Z,25.87
2023-04-09T00:57:28.853Z,26.17
2023-04-09T00:59:56.032Z,24.10
2023-04-09T01:02:22.959Z,23.30
2023-04-09T01:04:50.881Z,23.80
2023-04-09T01:07:42.659Z,23.77
2023-04-09T01:10:28.506Z,22.00
2023-04-09T01:13:13.147Z,27.37
2023-04-09T01:15:59.333Z,24.63
2023-04-09T01:18:51.568Z,24.70
2023-04-09T01:21:23.113Z,25.47
2023-04-09T01:23:52.861Z,26.63
2023-04-09T01:27:01.566Z,28.10
2023-04-09T01:29:31.953Z,25.67
2023-04-09T01:32:00.417Z,27.10
2023-04-09T01:34:29.104Z,24.80
2023-04-09T01:36:58.669Z,24.87
2023-04-09T01:39:27.090Z,24.53
2023-04-09T01:41:55.098Z,29.30
2023-04-09T01:44:23.507Z,26.77
2023-04-09T01:46:51.528Z,25.60
2023-04-09T01:49:19.374Z,27.30
2023-04-09T01:51:47.323Z,26.00
2023-04-09T01:54:14.177Z,27.20
2023-04-09T01:56:41.801Z,28.17
2023-04-09T01:59:08.585Z,28.60
2023-04-09T02:01:47.245Z,29.13
2023-04-09T02:04:24.705Z,31.07
2023-04-09T02:07:03.209Z,27.80
2023-04-09T02:09:31.837Z,27.27
2023-04-09T02:12:02.565Z,29.90
2023-04-09T02:14:31.513Z,26.10
2023-04-09T02:16:59.192Z,26.23
2023-04-09T02:19:26.293Z,29.73
2023-04-09T02:21:52.991Z,27.73
2023-04-09T02:24:20.190Z,27.80
2023-04-09T02:26:47.297Z,28.20
2023-04-09T02:29:14.394Z,28.63
2023-04-09T02:31:41.085Z,27.23
2023-04-09T02:34:07.743Z,28.77
2023-04-09T02:36:34.428Z,27.23
2023-04-09T02:39:01.104Z,29.50
2023-04-09T02:41:28.225Z,28.17
2023-04-09T02:43:55.473Z,28.30
2023-04-09T02:46:22.201Z,29.40
2023-04-09T02:48:49.603Z,28.07
2023-04-09T02:51:16.958Z,26.90
2023-04-09T02:53:45.579Z,27.90
2023-04-09T02:56:12.707Z,28.70
2023-04-09T02:58:39.440Z,27.03
2023-04-09T03:01:06.520Z,26.70
2023-04-09T03:03:33.768Z,28.23
2023-04-09T03:06:00.681Z,27.70
2023-04-09T03:08:27.444Z,26.53
2023-04-09T03:10:54.122Z,28.73
2023-04-09T03:13:20.841Z,27.03
2023-04-09T03:15:52.853Z,26.40
2023-04-09T03:18:20.250Z,27.60
2023-04-09T03:20:47.074Z,27.03
2023-04-09T03:23:14.170Z,27.47
2023-04-09T03:25:41.026Z,26.03
2023-04-09T03:28:07.717Z,26.73
2023-04-09T03:30:34.471Z,27.30
2023-04-09T03:33:01.223Z,29.10
2023-04-09T03:35:27.987Z,28.03
2023-04-09T03:37:54.734Z,27.40
2023-04-09T03:40:21.446Z,27.17
2023-04-09T03:42:48.165Z,28.23
2023-04-09T03:45:15.464Z,28.83
2023-04-09T03:47:42.554Z,26.87
2023-04-09T03:50:09.743Z,28.23
2023-04-09T03:52:36.443Z,27.87
2023-04-09T03:55:04.646Z,26.77
2023-04-09T03:57:31.361Z,30.60
2023-04-09T03:59:58.500Z,29.10
2023-04-09T04:02:27.182Z,29.00
2023-04-09T04:04:54.149Z,27.63
2023-04-09T04:07:21.034Z,27.43
2023-04-09T04:09:47.729Z,27.70
2023-04-09T04:12:14.468Z,29.70
2023-04-09T04:14:41.599Z,26.60
2023-04-09T04:17:08.456Z,27.33
2023-04-09T04:19:35.234Z,26.03
2023-04-09T04:22:01.959Z,27.50
2023-04-09T04:24:28.717Z,27.33
2023-04-09T04:26:56.024Z,27.70
2023-04-09T04:29:22.761Z,27.77
2023-04-09T04:31:49.469Z,26.43
2023-04-09T04:34:16.384Z,25.10
2023-04-09T04:36:43.044Z,25.97
2023-04-09T04:39:09.724Z,23.40
2023-04-09T04:41:36.578Z,26.60
2023-04-09T04:44:03.307Z,27.97
2023-04-09T04:46:30.506Z,26.90
2023-04-09T04:48:57.192Z,26.27
2023-04-09T04:51:24.293Z,28.40
2023-04-09T04:53:50.992Z,23.30
2023-04-09T04:56:17.732Z,28.10
2023-04-09T04:58:44.580Z,28.30
2023-04-09T05:01:11.350Z,28.20
2023-04-09T05:03:38.162Z,29.60
2023-04-09T05:06:05.501Z,32.10
2023-04-09T05:08:32.189Z,32.07
2023-04-09T05:10:58.877Z,33.50
2023-04-09T05:13:25.942Z,35.20
2023-04-09T05:15:52.719Z,35.27
2023-04-09T05:18:19.496Z,37.77
2023-04-09T05:20:46.174Z,33.77
2023-04-09T05:23:12.947Z,35.20
2023-04-09T05:25:39.758Z,37.60
2023-04-09T05:28:06.671Z,41.03
2023-04-09T05:30:33.848Z,39.57
2023-04-09T05:33:01.032Z,35.90
2023-04-09T05:35:27.763Z,38.73
2023-04-09T05:37:54.564Z,40.53
2023-04-09T05:40:21.446Z,41.43
2023-04-09T05:42:48.177Z,41.50
2023-04-09T05:45:14.984Z,43.23
2023-04-09T05:47:41.772Z,46.30
2023-04-09T05:50:08.895Z,43.20
2023-04-09T05:52:35.852Z,45.43
2023-04-09T05:55:02.533Z,52.37
2023-04-09T05:57:30.589Z,43.70
2023-04-09T05:59:57.473Z,43.20
2023-04-09T06:02:25.306Z,46.50
2023-04-09T06:04:52.291Z,43.63
2023-04-09T06:07:19.100Z,47.50
2023-04-09T06:09:46.881Z,44.47
2023-04-09T06:12:14.080Z,45.60
2023-04-09T06:14:40.841Z,43.17
2023-04-09T06:17:07.727Z,44.63
2023-04-09T06:19:34.557Z,42.37
2023-04-09T06:22:01.253Z,47.03
2023-04-09T06:24:27.974Z,42.90
2023-04-09T06:26:54.646Z,42.03
2023-04-09T06:29:24.182Z,41.67
2023-04-09T06:31:51.196Z,41.93
2023-04-09T06:34:17.847Z,43.10
2023-04-09T06:36:44.967Z,39.67
2023-04-09T06:39:11.877Z,42.87
2023-04-09T06:41:38.603Z,46.60
2023-04-09T06:44:05.382Z,37.97
2023-04-09T06:46:32.313Z,37.20
2023-04-09T06:48:59.422Z,40.97
2023-04-09T06:51:27.060Z,38.47
2023-04-09T06:53:54.180Z,39.37
2023-04-09T06:56:21.299Z,47.40
2023-04-09T06:58:48.230Z,37.60
2023-04-09T07:01:17.107Z,39.10
2023-04-09T07:03:43.937Z,37.03
2023-04-09T07:06:10.738Z,41.07
2023-04-09T07:08:37.407Z,42.10
2023-04-09T07:11:04.105Z,40.73
2023-04-09T07:13:31.306Z,37.90
2023-04-09T07:15:58.046Z,41.50
2023-04-09T07:18:24.722Z,36.20
2023-04-09T07:20:52.787Z,42.57
2023-04-09T07:23:19.730Z,37.53
2023-04-09T07:25:47.301Z,39.10
2023-04-09T07:28:14.005Z,39.53
2023-04-09T07:30:41.245Z,39.33
2023-04-09T07:33:08.057Z,39.60
2023-04-09T07:35:35.302Z,42.43
2023-04-09T07:38:02.059Z,37.50
2023-04-09T07:40:28.799Z,40.27
2023-04-09T07:42:55.956Z,39.90
2023-04-09T07:45:22.651Z,43.13
2023-04-09T07:47:49.813Z,38.63
2023-04-09T07:50:16.623Z,38.53
2023-04-09T07:52:43.345Z,37.90
2023-04-09T07:55:10.140Z,35.90
2023-04-09T07:57:37.541Z,36.77
2023-04-09T08:00:05.792Z,37.43
2023-04-09T08:02:32.636Z,35.73
2023-04-09T08:04:59.574Z,34.33
2023-04-09T08:07:26.369Z,34.63
2023-04-09T08:09:53.090Z,35.67
2023-04-09T08:12:19.774Z,35.30
2023-04-09T08:14:46.927Z,34.90
2023-04-09T08:17:13.635Z,34.37
2023-04-09T08:19:41.948Z,34.80
2023-04-09T08:22:08.961Z,33.07
2023-04-09T08:24:35.982Z,31.90
2023-04-09T08:27:02.711Z,33.20
2023-04-09T08:29:29.598Z,32.90
2023-04-09T08:31:56.455Z,32.97
2023-04-09T08:34:23.264Z,34.20
2023-04-09T08:36:50.226Z,33.00
2023-04-09T08:39:20.762Z,31.90
2023-04-09T08:41:48.390Z,31.50
2023-04-09T08:44:15.536Z,30.43
2023-04-09T08:46:42.798Z,30.03
2023-04-09T08:49:10.975Z,31.80
2023-04-09T08:51:37.765Z,30.00
2023-04-09T08:54:27.272Z,27.53
2023-04-09T08:56:51.139Z,28.30
2023-04-09T08:59:18.639Z,29.57
2023-04-09T09:01:47.977Z,30.63
2023-04-09T09:04:14.989Z,29.20
2023-04-09T09:06:42.096Z,29.20
2023-04-09T09:09:16.418Z,29.40
2023-04-09T09:11:48.568Z,30.30
2023-04-09T09:14:17.846Z,28.57
2023-04-09T09:16:58.050Z,29.70
2023-04-09T09:19:24.923Z,29.13
2023-04-09T09:22:03.378Z,28.67
2023-04-09T09:24:32.277Z,29.17
2023-04-09T09:26:59.155Z,29.80
2023-04-09T09:29:26.451Z,32.40
2023-04-09T09:31:54.704Z,30.90
2023-04-09T09:34:23.157Z,28.10
2023-04-09T09:36:50.510Z,30.60
2023-04-09T09:39:17.861Z,30.03
2023-04-09T09:41:46.468Z,30.33
2023-04-09T09:44:31.295Z,31.70
2023-04-09T09:46:59.362Z,28.40
2023-04-09T09:49:26.275Z,29.40
2023-04-09T09:51:56.779Z,27.37
2023-04-09T09:54:27.133Z,28.90
2023-04-09T09:56:58.040Z,30.43
2023-04-09T09:59:30.402Z,29.00
2023-04-09T10:02:01.410Z,28.73
2023-04-09T10:04:30.057Z,26.90
2023-04-09T10:06:57.898Z,28.10
2023-04-09T10:09:28.033Z,27.77
2023-04-09T10:11:57.561Z,29.00
2023-04-09T10:14:26.230Z,27.77
2023-04-09T10:16:53.285Z,27.43
2023-04-09T10:19:20.628Z,27.07
2023-04-09T10:21:56.584Z,27.73
2023-04-09T10:24:23.910Z,27.13
2023-04-09T10:26:54.630Z,27.90
2023-04-09T10:29:28.708Z,28.43
2023-04-09T10:32:06.784Z,25.93
2023-04-09T10:34:39.987Z,25.13
2023-04-09T10:37:14.768Z,25.70
2023-04-09T10:39:45.587Z,27.13
2023-04-09T10:42:15.773Z,25.40
2023-04-09T10:44:42.783Z,26.73
2023-04-09T10:47:11.850Z,24.33
2023-04-09T10:49:40.421Z,21.10
2023-04-09T10:52:11.910Z,21.60
2023-04-09T10:54:46.285Z,22.70
2023-04-09T10:57:18.545Z,21.87
2023-04-09T10:59:53.228Z,22.40
2023-04-09T11:02:52.942Z,22.80
2023-04-09T11:05:36.506Z,21.87
2023-04-09T11:08:09.637Z,20.07
2023-04-09T11:10:38.199Z,19.30
2023-04-09T11:13:05.749Z,20.07
2023-04-09T11:15:36.170Z,20.70
2023-04-09T11:18:03.962Z,20.50
2023-04-09T11:20:31.215Z,20.83
2023-04-09T11:22:59.582Z,18.33
2023-04-09T11:25:31.292Z,19.80
2023-04-09T11:27:58.349Z,18.70
2023-04-09T11:30:25.128Z,18.73
2023-04-09T11:32:52.181Z,15.47
2023-04-09T11:35:22.031Z,15.17
2023-04-09T11:37:50.254Z,14.50
2023-04-09T11:40:22.440Z,16.63
2023-04-09T11:42:51.381Z,15.90
2023-04-09T11:45:19.535Z,15.50
2023-04-09T11:47:47.302Z,17.10
2023-04-09T11:50:15.796Z,15.90
2023-04-09T11:52:43.406Z,14.90
2023-04-09T11:55:10.913Z,15.10
2023-04-09T11:57:47.210Z,14.60
2023-04-09T12:00:16.732Z,14.83
2023-04-09T12:02:49.167Z,15.47
2023-04-09T12:05:27.988Z,16.00
2023-04-09T12:08:02.267Z,15.80
2023-04-09T12:10:30.694Z,15.77
2023-04-09T12:13:09.189Z,15.83
2023-04-09T12:15:41.866Z,17.80
2023-04-09T12:18:10.080Z,13.63
2023-04-09T12:20:45.110Z,15.10
2023-04-09T12:23:13.034Z,14.40
2023-04-09T12:25:42.001Z,14.30
2023-04-09T12:28:17.893Z,14.40
2023-04-09T12:30:45.067Z,12.70
2023-04-09T12:33:11.847Z,12.63
2023-04-09T12:35:38.836Z,12.63
2023-04-09T12:38:06.144Z,13.17
2023-04-09T12:40:33.084Z,13.00
2023-04-09T12:42:59.892Z,13.07
2023-04-09T12:45:27.911Z,13.40
2023-04-09T12:47:54.903Z,13.30
2023-04-09T12:50:21.909Z,13.17
2023-04-09T12:52:48.732Z,14.20
2023-04-09T12:55:16.150Z,12.93
2023-04-09T12:57:45.010Z,13.60
2023-04-09T13:00:12.251Z,13.30
2023-04-09T13:02:39.507Z,14.53
2023-04-09T13:05:06.595Z,13.70
2023-04-09T13:07:33.395Z,13.73
2023-04-09T13:10:00.303Z,14.17
2023-04-09T13:12:27.358Z,13.63
2023-04-09T13:14:55.532Z,13.20
2023-04-09T13:17:22.852Z,13.80
2023-04-09T13:19:51.683Z,14.30
2023-04-09T13:22:19.122Z,12.87
2023-04-09T13:24:45.994Z,13.80
2023-04-09T13:27:12.847Z,13.50
2023-04-09T13:29:40.007Z,13.53
2023-04-09T13:32:11.053Z,13.43
2023-04-09T13:34:39.243Z,14.00
2023-04-09T13:37:06.315Z,13.30
2023-04-09T13:39:33.534Z,13.30
2023-04-09T13:42:07.157Z,13.17
2023-04-09T13:44:37.029Z,14.00
2023-04-09T13:47:03.765Z,13.90
2023-04-09T13:49:30.944Z,14.93
2023-04-09T13:51:58.258Z,14.90
2023-04-09T13:54:25.054Z,15.03
2023-04-09T13:56:51.880Z,15.30
2023-04-09T13:59:18.713Z,15.53
2023-04-09T14:01:45.728Z,14.07
2023-04-09T14:04:12.784Z,15.53
2023-04-09T14:06:39.637Z,15.13
2023-04-09T14:09:06.367Z,15.23
2023-04-09T14:11:33.086Z,15.67
2023-04-09T14:13:59.822Z,15.00
2023-04-09T14:16:28.078Z,14.67
2023-04-09T14:18:54.985Z,13.20
2023-04-09T14:21:22.102Z,14.00
2023-04-09T14:23:49.239Z,15.20
2023-04-09T14:26:24.222Z,13.27
2023-04-09T14:28:51.685Z,14.40
2023-04-09T14:31:21.730Z,13.07
2023-04-09T14:33:49.214Z,12.13
2023-04-09T14:36:16.665Z,12.50
2023-04-09T14:38:43.812Z,12.70
2023-04-09T14:41:10.768Z,12.90
2023-04-09T14:43:37.608Z,12.23
2023-04-09T14:46:06.383Z,11.93
2023-04-09T14:48:33.155Z,12.73
2023-04-09T14:50:59.856Z,12.30
2023-04-09T14:53:26.725Z,12.50
2023-04-09T14:55:53.466Z,11.87
2023-04-09T14:58:20.778Z,11.77
2023-04-09T15:00:47.611Z,11.93
2023-04-09T15:03:14.590Z,12.07
2023-04-09T15:05:41.606Z,11.20
2023-04-09T15:08:08.278Z,11.20
2023-04-09T15:10:36.600Z,10.80
2023-04-09T15:13:03.366Z,11.20
2023-04-09T15:15:30.118Z,12.90
2023-04-09T15:17:57.122Z,12.57
2023-04-09T15:20:23.951Z,12.33
2023-04-09T15:22:51.237Z,12.07
2023-04-09T15:25:18.055Z,11.07
2023-04-09T15:27:46.469Z,11.90
2023-04-09T15:30:13.279Z,11.63
2023-04-09T15:32:40.111Z,12.23
2023-04-09T15:35:07.257Z,12.30
2023-04-09T15:37:34.108Z,11.77
2023-04-09T15:40:01.552Z,15.80
2023-04-09T15:42:28.254Z,26.03
2023-04-09T15:44:55.353Z,12.17
2023-04-09T15:47:22.087Z,12.90
2023-04-09T15:49:48.828Z,12.10
2023-04-09T15:52:15.724Z,12.07
2023-04-09T15:54:42.485Z,13.57
2023-04-09T15:57:09.175Z,12.77
2023-04-09T15:59:35.956Z,13.40
2023-04-09T16:02:04.445Z,13.50
2023-04-09T16:04:31.313Z,13.17
2023-04-09T16:06:58.278Z,12.70
2023-04-09T16:09:25.028Z,13.70
2023-04-09T16:11:51.837Z,13.60
2023-04-09T16:14:18.678Z,12.90
2023-04-09T16:16:49.746Z,15.13
2023-04-09T16:19:17.628Z,12.80
2023-04-09T16:21:45.352Z,13.40
2023-04-09T16:24:13.000Z,16.00
2023-04-09T16:26:44.306Z,12.80
2023-04-09T16:29:11.723Z,12.63
2023-04-09T16:31:41.809Z,12.27
2023-04-09T16:34:08.536Z,12.80
2023-04-09T16:36:38.002Z,14.20
2023-04-09T16:39:05.173Z,14.33
2023-04-09T16:41:32.652Z,13.03
2023-04-09T16:44:00.663Z,13.73
2023-04-09T16:46:27.504Z,13.20
2023-04-09T16:48:54.603Z,13.87
2023-04-09T16:51:21.518Z,13.93
2023-04-09T16:53:48.240Z,13.80
2023-04-09T16:56:16.009Z,14.07
2023-04-09T16:58:43.033Z,14.13
2023-04-09T17:01:09.755Z,12.83
2023-04-09T17:03:36.528Z,13.63
2023-04-09T17:06:04.711Z,13.63
2023-04-09T17:08:31.775Z,13.13
2023-04-09T17:11:04.223Z,13.50
2023-04-09T17:13:34.233Z,14.33
2023-04-09T17:16:02.545Z,12.80
2023-04-09T17:18:29.871Z,13.80
2023-04-09T17:20:56.689Z,13.87
2023-04-09T17:23:23.566Z,13.90
2023-04-09T17:25:50.301Z,14.07
2023-04-09T17:28:18.805Z,14.47
2023-04-09T17:30:45.823Z,14.83
2023-04-09T17:33:12.764Z,20.73
2023-04-09T17:35:39.634Z,17.70
2023-04-09T17:38:06.749Z,14.40
2023-04-09T17:40:33.702Z,15.70
2023-04-09T17:43:00.809Z,14.50
2023-04-09T17:45:27.546Z,14.00
2023-04-09T17:47:54.367Z,14.27
2023-04-09T17:50:21.347Z,14.63
2023-04-09T17:52:48.067Z,14.93
2023-04-09T17:55:15.410Z,14.93
2023-04-09T17:57:42.780Z,16.10
2023-04-09T18:00:11.117Z,14.70
2023-04-09T18:02:38.176Z,15.40
2023-04-09T18:05:05.574Z,15.00
2023-04-09T18:07:35.399Z,15.10
2023-04-09T18:10:03.505Z,15.30
2023-04-09T18:12:30.395Z,15.80
2023-04-09T18:14:57.199Z,15.40
2023-04-09T18:17:26.139Z,15.97
2023-04-09T18:19:58.373Z,16.77
2023-04-09T18:22:26.884Z,16.97
2023-04-09T18:24:54.234Z,17.67
2023-04-09T18:27:21.600Z,16.53
2023-04-09T18:29:51.457Z,18.13
2023-04-09T18:32:19.695Z,18.07
2023-04-09T18:34:47.661Z,20.50
2023-04-09T18:37:15.329Z,23.40
2023-04-09T18:39:42.124Z,23.17
2023-04-09T18:42:08.893Z,28.00
2023-04-09T18:44:37.532Z,27.87
2023-04-09T18:47:05.751Z,28.23
2023-04-09T18:49:33.365Z,27.50
2023-04-09T18:52:00.656Z,26.03
2023-04-09T18:54:27.691Z,28.00
2023-04-09T18:56:54.447Z,30.17
2023-04-09T18:59:21.752Z,31.70
2023-04-09T19:01:48.603Z,38.03
2023-04-09T19:04:15.668Z,36.60
2023-04-09T19:06:44.574Z,39.43
2023-04-09T19:09:11.294Z,38.80
2023-04-09T19:11:38.066Z,41.57
2023-04-09T19:14:04.764Z,42.10
2023-04-09T19:16:31.595Z,44.30
2023-04-09T19:18:58.458Z,44.40
2023-04-09T19:21:25.226Z,44.53
2023-04-09T19:23:51.946Z,44.13
2023-04-09T19:26:18.685Z,49.77
2023-04-09T19:28:45.788Z,49.90
2023-04-09T19:31:16.164Z,50.43
2023-04-09T19:33:42.947Z,49.30
2023-04-09T19:36:09.725Z,47.83
2023-04-09T19:38:36.522Z,46.53
2023-04-09T19:41:03.380Z,45.30
2023-04-09T19:43:30.254Z,49.70
2023-04-09T19:45:57.023Z,49.30
2023-04-09T19:48:24.363Z,49.27
2023-04-09T19:50:52.507Z,57.67
2023-04-09T19:53:19.270Z,56.57
2023-04-09T19:55:45.971Z,59.97
2023-04-09T19:58:12.685Z,61.10
2023-04-09T20:00:39.485Z,60.80
2023-04-09T20:03:07.166Z,63.03
2023-04-09T20:05:34.500Z,55.90
2023-04-09T20:08:01.229Z,53.60
2023-04-09T20:10:28.056Z,47.17
2023-04-09T20:12:54.841Z,46.53
2023-04-09T20:15:21.612Z,42.60
2023-04-09T20:17:49.412Z,43.20
2023-04-09T20:20:20.347Z,42.83
2023-04-09T20:22:55.689Z,41.40
2023-04-09T20:25:23.693Z,39.03
2023-04-09T20:27:53.010Z,36.27
2023-04-09T20:30:19.901Z,36.40
2023-04-09T20:32:48.830Z,37.30
2023-04-09T20:35:15.900Z,34.37
2023-04-09T20:37:42.784Z,31.73
2023-04-09T20:40:10.934Z,30.87
2023-04-09T20:42:40.832Z,30.33
2023-04-09T20:45:08.743Z,30.00
2023-04-09T20:50:03.299Z,30.10
2023-04-09T20:52:30.469Z,29.20
2023-04-09T20:54:57.706Z,27.40
2023-04-09T20:57:24.464Z,29.77
2023-04-09T20:59:52.810Z,29.50
2023-04-09T21:02:19.864Z,29.40
2023-04-09T21:04:46.769Z,31.17
2023-04-09T21:07:13.636Z,29.43
2023-04-09T21:09:40.381Z,28.07
2023-04-09T21:12:07.284Z,28.83
2023-04-09T21:14:34.100Z,30.63
2023-04-09T21:17:01.105Z,33.80
2023-04-09T21:19:27.956Z,35.17
2023-04-09T21:21:54.782Z,36.07
2023-04-09T21:24:21.595Z,35.30
2023-04-09T21:26:51.181Z,35.07
2023-04-09T21:29:20.660Z,34.83
2023-04-09T21:31:48.549Z,36.50
2023-04-09T21:34:15.894Z,37.73
2023-04-09T21:36:45.001Z,36.73
2023-04-09T21:39:12.281Z,36.77
2023-04-09T21:41:39.476Z,38.93
2023-04-09T21:44:08.527Z,40.37
2023-04-09T21:46:40.521Z,38.30
2023-04-09T21:49:08.109Z,39.77
2023-04-09T21:51:35.303Z,41.30
2023-04-09T21:54:09.752Z,40.90
2023-04-09T21:56:37.004Z,40.17
2023-04-09T21:59:04.401Z,31.90
2023-04-09T22:01:32.077Z,39.43
2023-04-09T22:04:00.191Z,37.70
2023-04-09T22:06:28.699Z,36.93
2023-04-09T22:08:57.554Z,37.60
2023-04-09T22:11:29.379Z,34.47
2023-04-09T22:13:57.207Z,36.50
2023-04-09T22:16:25.060Z,36.67
2023-04-09T22:18:52.683Z,34.37
2023-04-09T22:21:19.706Z,34.10
2023-04-09T22:23:46.507Z,33.20
2023-04-09T22:26:13.213Z,33.50
2023-04-09T22:28:40.020Z,34.10
2023-04-09T22:31:07.135Z,32.53
2023-04-09T22:33:34.263Z,30.80
2023-04-09T22:36:01.218Z,28.50
2023-04-09T22:38:28.424Z,31.30
2023-04-09T22:40:55.736Z,32.30
2023-04-09T22:43:22.786Z,31.77
2023-04-09T22:45:51.474Z,29.93
2023-04-09T22:48:19.062Z,33.07
2023-04-09T22:50:46.003Z,33.47
2023-04-09T22:53:13.078Z,33.37
2023-04-09T22:55:40.599Z,32.67
2023-04-09T22:58:07.333Z,32.77
2023-04-09T23:00:34.085Z,33.70
2023-04-09T23:03:01.055Z,34.70
2023-04-09T23:05:27.933Z,35.10
2023-04-09T23:07:54.621Z,35.83
2023-04-09T23:10:21.608Z,37.47
2023-04-09T23:12:48.290Z,40.20
2023-04-09T23:15:15.828Z,34.73
2023-04-09T23:17:42.836Z,36.90
2023-04-09T23:20:11.306Z,35.73
2023-04-09T23:22:38.095Z,35.90
2023-04-09T23:25:05.134Z,35.37
2023-04-09T23:27:31.876Z,36.87
2023-04-09T23:29:58.732Z,34.70
2023-04-09T23:32:25.527Z,34.90
2023-04-09T23:34:52.268Z,35.57
2023-04-09T23:37:19.107Z,33.60
2023-04-09T23:39:48.806Z,37.80
2023-04-09T23:42:15.649Z,38.27
2023-04-09T23:44:43.857Z,36.80
2023-04-09T23:47:12.018Z,38.03
2023-04-09T23:49:39.125Z,36.00
2023-04-09T23:52:06.024Z,34.47
2023-04-09T23:54:32.743Z,32.67
2023-04-09T23:56:59.685Z,34.77
2023-04-09T23:59:26.485Z,35.20
